Time;durP1;ratioP1;P1;durP2;ratioP2;P2;SDS_P1;SDS_P2;PMS_P1;PMS_P2;Temp;Humidity;BMP_temperature;BMP_pressure;BME280_temperature;BME280_humidity;BME280_pressure;Samples;Min_cycle;Max_cycle;Signal;HPM_P1;HPM_P2
2021/06/30 00:01:30;;;;;;;0.40;0.20;;;15.00;99.90;;;;;;5107597;28;20433;-76
2021/06/30 00:03:56;;;;;;;0.40;0.30;;;15.10;99.90;;;;;;5107954;28;20473;-79
2021/06/30 00:06:22;;;;;;;0.40;0.20;;;15.20;99.90;;;;;;5091374;28;20523;-78
2021/06/30 00:08:48;;;;;;;0.40;0.20;;;15.20;99.90;;;;;;5109310;28;20423;-79
2021/06/30 00:11:15;;;;;;;0.40;0.20;;;15.20;99.90;;;;;;5110844;28;20879;-78
2021/06/30 00:13:42;;;;;;;0.40;0.20;;;15.20;99.90;;;;;;5108582;28;20396;-78
2021/06/30 00:16:08;;;;;;;0.40;0.20;;;15.30;99.90;;;;;;5090761;28;20735;-79
2021/06/30 00:18:34;;;;;;;0.40;0.20;;;15.30;99.90;;;;;;5091732;28;20846;-79
2021/06/30 00:21:01;;;;;;;0.40;0.20;;;15.20;99.90;;;;;;5092188;28;20392;-80
2021/06/30 00:23:26;;;;;;;0.40;0.30;;;15.20;99.90;;;;;;5111841;28;20463;-80
2021/06/30 00:25:52;;;;;;;0.40;0.20;;;15.30;99.90;;;;;;5099838;28;20548;-80
2021/06/30 00:28:17;;;;;;;0.40;0.30;;;15.30;99.90;;;;;;5073247;28;20397;-79
2021/06/30 00:30:43;;;;;;;0.40;0.30;;;15.40;99.90;;;;;;5093239;28;20393;-79
2021/06/30 00:33:09;;;;;;;0.40;0.20;;;15.40;99.90;;;;;;5096235;28;20389;-78
2021/06/30 00:35:34;;;;;;;0.40;0.25;;;15.40;99.90;;;;;;5074393;28;20394;-76
2021/06/30 00:38:00;;;;;;;0.40;0.20;;;15.40;99.90;;;;;;5110506;28;20391;-78
2021/06/30 00:40:26;;;;;;;0.40;0.20;;;15.40;99.90;;;;;;5102149;28;20417;-80
2021/06/30 00:42:53;;;;;;;0.40;0.20;;;15.40;99.90;;;;;;5091754;28;20390;-77
2021/06/30 00:45:20;;;;;;;0.40;0.20;;;15.40;99.90;;;;;;5110454;28;21065;-78
2021/06/30 00:47:45;;;;;;;0.40;0.28;;;15.50;99.90;;;;;;5092437;28;20480;-77
2021/06/30 00:50:16;;;;;;;0.40;0.20;;;15.50;99.90;;;;;;5089090;28;20487;-77
2021/06/30 00:52:42;;;;;;;0.40;0.30;;;15.50;99.90;;;;;;5098584;28;20397;-80
2021/06/30 00:55:08;;;;;;;0.40;0.20;;;15.50;99.90;;;;;;5100079;28;20378;-79
2021/06/30 00:57:34;;;;;;;0.40;0.20;;;15.50;99.90;;;;;;5091428;28;20392;-78
2021/06/30 00:59:59;;;;;;;0.40;0.20;;;15.50;99.90;;;;;;5106880;28;20424;-78
2021/06/30 01:02:25;;;;;;;0.40;0.30;;;15.50;99.90;;;;;;5101723;28;20437;-78
2021/06/30 01:04:51;;;;;;;0.40;0.20;;;15.50;99.90;;;;;;5110940;28;20483;-78
2021/06/30 01:07:17;;;;;;;0.40;0.20;;;15.40;99.90;;;;;;5109531;28;20798;-76
2021/06/30 01:09:43;;;;;;;0.40;0.30;;;15.50;99.90;;;;;;5109066;28;20392;-79
2021/06/30 01:12:08;;;;;;;0.40;0.20;;;15.40;99.90;;;;;;5103135;28;20443;-76
2021/06/30 01:14:36;;;;;;;0.40;0.20;;;15.40;99.90;;;;;;5074307;28;20397;-79
2021/06/30 01:17:05;;;;;;;0.40;0.30;;;15.40;99.90;;;;;;5110359;28;20376;-79
2021/06/30 01:19:31;;;;;;;0.40;0.20;;;15.40;99.90;;;;;;5100553;28;20394;-78
2021/06/30 01:21:58;;;;;;;0.40;0.30;;;15.40;99.90;;;;;;5090732;28;20700;-78
2021/06/30 01:24:23;;;;;;;0.40;0.30;;;15.40;99.90;;;;;;5108202;28;20387;-79
2021/06/30 01:26:50;;;;;;;0.40;0.20;;;15.30;99.90;;;;;;5100225;28;20477;-78
2021/06/30 01:29:19;;;;;;;0.40;0.30;;;15.30;99.90;;;;;;5074042;28;20440;-78
2021/06/30 01:31:45;;;;;;;0.40;0.20;;;15.30;99.90;;;;;;5111325;28;20511;-79
2021/06/30 01:34:11;;;;;;;0.40;0.30;;;15.20;99.90;;;;;;5103857;28;20394;-79
2021/06/30 01:36:52;;;;;;;0.40;0.30;;;15.30;99.90;;;;;;5094219;28;20476;-81
2021/06/30 01:39:19;;;;;;;0.40;0.20;;;15.30;99.90;;;;;;5094340;28;20437;-79
2021/06/30 01:41:46;;;;;;;0.40;0.20;;;15.30;99.90;;;;;;5110421;28;20398;-81
2021/06/30 01:44:12;;;;;;;0.40;0.30;;;15.30;99.90;;;;;;5103531;28;20792;-79
2021/06/30 01:46:39;;;;;;;0.40;0.20;;;15.40;99.90;;;;;;5098403;28;20389;-79
2021/06/30 01:49:05;;;;;;;0.40;0.20;;;15.40;99.90;;;;;;5114024;28;20404;-79
2021/06/30 01:51:31;;;;;;;0.40;0.30;;;15.40;99.90;;;;;;5084900;28;20466;-79
2021/06/30 01:53:58;;;;;;;0.40;0.20;;;15.40;99.90;;;;;;5113604;28;20860;-79
2021/06/30 01:56:25;;;;;;;0.40;0.20;;;15.40;99.90;;;;;;5113823;28;20504;-79
2021/06/30 01:58:59;;;;;;;0.40;0.30;;;15.40;99.90;;;;;;5098018;28;20386;-79
2021/06/30 02:01:25;;;;;;;0.40;0.28;;;15.30;99.90;;;;;;5099216;28;20395;-77
2021/06/30 02:03:51;;;;;;;0.40;0.20;;;15.40;99.90;;;;;;5114227;28;20475;-76
2021/06/30 02:06:17;;;;;;;0.40;0.30;;;15.40;99.90;;;;;;5098486;28;20394;-78
2021/06/30 02:08:42;;;;;;;0.40;0.20;;;15.30;99.90;;;;;;5080667;28;20499;-78
2021/06/30 02:11:08;;;;;;;0.40;0.20;;;15.40;99.90;;;;;;5113398;28;20404;-79
2021/06/30 02:13:33;;;;;;;0.40;0.20;;;15.30;99.90;;;;;;5096783;28;20421;-81
2021/06/30 02:15:59;;;;;;;0.40;0.20;;;15.30;99.90;;;;;;5098466;28;20473;-79
2021/06/30 02:18:25;;;;;;;0.40;0.20;;;15.20;99.90;;;;;;5095039;28;20427;-79
2021/06/30 02:20:50;;;;;;;0.40;0.30;;;15.30;99.90;;;;;;5095868;28;20421;-79
2021/06/30 02:23:16;;;;;;;0.40;0.20;;;15.30;99.90;;;;;;5105577;28;20503;-79
2021/06/30 02:25:42;;;;;;;0.40;0.20;;;15.30;99.90;;;;;;5108794;28;20405;-79
2021/06/30 02:28:07;;;;;;;0.40;0.20;;;15.10;99.90;;;;;;5092632;28;20410;-78
2021/06/30 02:30:33;;;;;;;0.40;0.30;;;15.10;99.90;;;;;;5094176;28;20405;-80
2021/06/30 02:33:01;;;;;;;0.40;0.30;;;15.20;99.90;;;;;;5106186;28;20390;-79
2021/06/30 02:35:28;;;;;;;0.40;0.20;;;15.20;99.90;;;;;;5093636;28;20394;-78
2021/06/30 02:37:56;;;;;;;0.40;0.20;;;15.30;99.90;;;;;;5113510;28;20407;-79
2021/06/30 02:40:23;;;;;;;0.40;0.20;;;15.30;99.90;;;;;;5112601;28;20502;-78
2021/06/30 02:42:50;;;;;;;0.40;0.30;;;15.30;99.90;;;;;;5113437;28;20453;-79
2021/06/30 02:45:18;;;;;;;0.40;0.20;;;15.30;99.90;;;;;;5112067;28;20376;-78
2021/06/30 02:47:46;;;;;;;0.40;0.30;;;15.40;99.90;;;;;;5113218;28;20831;-79
2021/06/30 02:50:13;;;;;;;0.40;0.30;;;15.30;99.90;;;;;;5112294;28;20388;-79
2021/06/30 02:52:39;;;;;;;0.40;0.20;;;15.20;99.90;;;;;;5097897;28;20402;-79
2021/06/30 02:55:06;;;;;;;0.40;0.20;;;15.20;99.90;;;;;;5106430;28;20441;-79
2021/06/30 02:57:32;;;;;;;0.40;0.30;;;15.20;99.90;;;;;;5095304;28;20465;-79
2021/06/30 02:59:58;;;;;;;0.40;0.30;;;15.20;99.90;;;;;;5093122;28;20465;-79
2021/06/30 03:02:23;;;;;;;0.40;0.30;;;15.10;99.90;;;;;;5073986;28;20414;-78
2021/06/30 03:04:49;;;;;;;0.40;0.30;;;15.20;99.90;;;;;;5092812;28;20386;-80
2021/06/30 03:07:15;;;;;;;0.40;0.30;;;15.10;99.90;;;;;;5091896;28;20381;-78
2021/06/30 03:09:40;;;;;;;0.40;0.30;;;15.10;99.90;;;;;;5092428;28;20439;-78
2021/06/30 03:12:06;;;;;;;0.40;0.20;;;15.10;99.90;;;;;;5095660;28;20414;-79
2021/06/30 03:14:32;;;;;;;0.40;0.20;;;15.10;99.90;;;;;;5093938;28;20868;-77
2021/06/30 03:16:58;;;;;;;0.40;0.20;;;15.10;99.90;;;;;;5112897;28;20418;-77
2021/06/30 03:19:23;;;;;;;0.40;0.20;;;15.10;99.90;;;;;;5112105;28;20381;-77
2021/06/30 03:21:49;;;;;;;0.40;0.30;;;15.20;99.90;;;;;;5113038;28;20430;-76
2021/06/30 03:24:15;;;;;;;0.40;0.30;;;15.10;99.90;;;;;;5112294;28;20732;-78
2021/06/30 03:26:40;;;;;;;0.40;0.20;;;15.10;99.90;;;;;;5112642;28;20392;-77
2021/06/30 03:29:06;;;;;;;0.40;0.30;;;15.20;99.90;;;;;;5112622;28;20412;-78
2021/06/30 03:31:32;;;;;;;0.40;0.27;;;15.20;99.90;;;;;;5093891;28;20396;-79
2021/06/30 03:33:58;;;;;;;0.40;0.20;;;15.20;99.90;;;;;;5112609;28;20408;-77
2021/06/30 03:36:24;;;;;;;0.40;0.30;;;15.20;99.90;;;;;;5111966;28;20430;-78
2021/06/30 03:38:50;;;;;;;0.40;0.30;;;15.10;99.90;;;;;;5112553;28;20388;-79
2021/06/30 03:41:15;;;;;;;0.40;0.20;;;15.10;99.90;;;;;;5098371;28;20734;-78
2021/06/30 03:43:41;;;;;;;0.40;0.30;;;15.20;99.90;;;;;;5091803;28;20462;-78
2021/06/30 03:46:11;;;;;;;0.40;0.20;;;15.20;99.90;;;;;;5092244;28;20453;-79
2021/06/30 03:48:36;;;;;;;0.40;0.30;;;15.10;99.90;;;;;;5091768;28;20497;-76
2021/06/30 03:51:03;;;;;;;0.40;0.20;;;15.10;99.90;;;;;;5093325;28;20477;-76
2021/06/30 03:53:29;;;;;;;0.40;0.20;;;15.10;99.90;;;;;;5111729;28;20399;-78
2021/06/30 03:55:54;;;;;;;0.40;0.20;;;15.20;99.90;;;;;;5094332;28;20381;-78
2021/06/30 03:58:20;;;;;;;0.40;0.20;;;15.10;99.90;;;;;;5111942;28;20376;-78
2021/06/30 04:00:46;;;;;;;0.40;0.30;;;15.00;99.90;;;;;;5112421;28;20833;-77
2021/06/30 04:03:11;;;;;;;0.40;0.20;;;15.10;99.90;;;;;;5111846;28;20425;-78
2021/06/30 04:05:37;;;;;;;0.40;0.20;;;15.10;99.90;;;;;;5112141;28;20419;-78
2021/06/30 04:08:11;;;;;;;0.40;0.30;;;15.10;99.90;;;;;;5112457;28;20400;-78
2021/06/30 04:10:37;;;;;;;0.40;0.20;;;15.10;99.90;;;;;;5112097;28;20752;-78
2021/06/30 04:13:03;;;;;;;0.40;0.20;;;15.10;99.90;;;;;;5112432;28;20398;-79
2021/06/30 04:15:30;;;;;;;0.40;0.30;;;15.10;99.90;;;;;;5111781;28;20388;-81
2021/06/30 04:17:58;;;;;;;0.40;0.20;;;15.10;99.90;;;;;;5112734;28;20388;-76
2021/06/30 04:20:23;;;;;;;0.40;0.20;;;15.10;99.90;;;;;;5111700;28;20381;-77
2021/06/30 04:22:49;;;;;;;0.40;0.20;;;15.10;99.90;;;;;;5112226;28;20380;-81
2021/06/30 04:25:15;;;;;;;0.40;0.30;;;15.10;99.90;;;;;;5110326;28;20447;-80
2021/06/30 04:27:40;;;;;;;0.40;0.30;;;15.20;99.90;;;;;;5111293;28;20400;-80
2021/06/30 04:30:09;;;;;;;0.40;0.30;;;15.50;99.90;;;;;;5109470;28;20786;-77
2021/06/30 04:32:35;;;;;;;0.40;0.30;;;15.20;99.90;;;;;;5111980;28;20380;-78
2021/06/30 04:35:01;;;;;;;0.40;0.20;;;15.20;99.90;;;;;;5111486;28;20383;-79
2021/06/30 04:37:27;;;;;;;0.40;0.20;;;15.20;99.90;;;;;;5109757;28;20795;-79
2021/06/30 04:39:52;;;;;;;0.40;0.20;;;15.20;99.90;;;;;;5099880;28;20480;-82
2021/06/30 04:42:18;;;;;;;0.40;0.30;;;15.20;99.90;;;;;;5094982;28;20387;-76
2021/06/30 04:44:45;;;;;;;0.40;0.20;;;15.20;99.90;;;;;;5111152;28;20726;-76
2021/06/30 04:47:11;;;;;;;0.40;0.20;;;15.20;99.90;;;;;;5091038;28;20398;-78
2021/06/30 04:49:36;;;;;;;0.40;0.20;;;15.10;99.90;;;;;;5074608;28;20807;-79
2021/06/30 04:52:02;;;;;;;0.40;0.20;;;15.20;99.90;;;;;;5101183;28;20415;-78
2021/06/30 04:54:28;;;;;;;0.40;0.20;;;15.30;99.90;;;;;;5100386;28;20413;-79
2021/06/30 04:56:54;;;;;;;0.40;0.20;;;15.30;99.90;;;;;;5093279;28;20488;-80
2021/06/30 04:59:20;;;;;;;0.40;0.30;;;15.30;99.90;;;;;;5090462;28;20461;-79
2021/06/30 05:01:45;;;;;;;0.40;0.20;;;15.30;99.90;;;;;;5096439;28;20378;-82
2021/06/30 05:04:11;;;;;;;0.40;0.20;;;15.30;99.90;;;;;;5091145;28;20397;-81
2021/06/30 05:06:37;;;;;;;0.40;0.30;;;15.30;99.90;;;;;;5097966;28;20392;-78
2021/06/30 05:09:03;;;;;;;0.40;0.30;;;15.30;99.90;;;;;;5114612;28;20409;-79
2021/06/30 05:11:31;;;;;;;0.40;0.20;;;15.30;99.90;;;;;;5096062;28;20392;-80
2021/06/30 05:13:57;;;;;;;0.40;0.20;;;15.30;99.90;;;;;;5107895;28;20392;-79
2021/06/30 05:16:24;;;;;;;0.40;0.20;;;15.30;99.90;;;;;;5111956;28;20384;-79
2021/06/30 05:18:51;;;;;;;0.40;0.20;;;15.20;99.90;;;;;;5105317;28;20410;-78
2021/06/30 05:21:18;;;;;;;0.40;0.20;;;15.20;99.90;;;;;;5104060;28;20380;-80
2021/06/30 05:23:43;;;;;;;0.40;0.30;;;15.30;99.90;;;;;;5084284;28;20396;-79
2021/06/30 05:26:09;;;;;;;0.40;0.20;;;15.30;99.90;;;;;;5100645;28;20396;-82
2021/06/30 05:28:34;;;;;;;0.40;0.20;;;15.30;99.90;;;;;;5109178;28;20400;-82
2021/06/30 05:31:00;;;;;;;0.40;0.30;;;15.30;99.90;;;;;;5114957;28;20428;-84
2021/06/30 05:33:28;;;;;;;0.40;0.30;;;15.20;99.90;;;;;;5110653;28;20503;-81
2021/06/30 05:35:55;;;;;;;0.40;0.20;;;15.20;99.90;;;;;;5107728;28;20396;-83
2021/06/30 05:38:21;;;;;;;0.40;0.20;;;15.20;99.90;;;;;;5085005;28;20951;-83
2021/06/30 05:40:47;;;;;;;0.40;0.30;;;15.20;99.90;;;;;;5100161;28;20382;-83
2021/06/30 05:43:12;;;;;;;0.40;0.20;;;15.30;99.90;;;;;;5115027;28;20369;-81
2021/06/30 05:45:38;;;;;;;0.40;0.20;;;15.30;99.90;;;;;;5095012;28;20483;-82
2021/06/30 05:48:04;;;;;;;0.40;0.20;;;15.30;99.90;;;;;;5111138;28;20408;-79
2021/06/30 05:50:30;;;;;;;0.40;0.30;;;15.30;99.90;;;;;;5092902;28;20389;-82
2021/06/30 05:52:55;;;;;;;0.40;0.20;;;15.30;99.90;;;;;;5093641;28;20398;-82
2021/06/30 05:55:22;;;;;;;0.40;0.20;;;15.20;99.90;;;;;;5099897;28;20748;-82
2021/06/30 05:57:48;;;;;;;0.40;0.20;;;15.40;99.90;;;;;;5114076;28;20476;-78
2021/06/30 06:00:16;;;;;;;0.40;0.30;;;15.30;99.90;;;;;;5075924;28;20485;-80
2021/06/30 06:02:42;;;;;;;0.40;0.40;;;15.40;99.90;;;;;;5088379;28;20415;-81
2021/06/30 06:05:08;;;;;;;0.40;0.30;;;15.50;99.90;;;;;;5110337;28;20476;-84
2021/06/30 06:07:34;;;;;;;0.40;0.30;;;15.40;99.90;;;;;;5095257;28;20543;-81
2021/06/30 06:10:00;;;;;;;0.40;0.30;;;15.50;99.90;;;;;;5083401;28;20875;-84
2021/06/30 06:12:27;;;;;;;0.40;0.20;;;15.60;99.90;;;;;;5096966;28;20380;-83
2021/06/30 06:14:53;;;;;;;0.40;0.20;;;15.70;99.90;;;;;;5114483;28;20376;-81
2021/06/30 06:17:20;;;;;;;0.40;0.20;;;15.60;99.90;;;;;;5105292;28;20394;-78
2021/06/30 06:19:45;;;;;;;0.40;0.20;;;15.60;99.90;;;;;;5099684;28;20437;-81
2021/06/30 06:22:11;;;;;;;0.40;0.20;;;15.60;99.90;;;;;;5104951;28;20737;-81
2021/06/30 06:24:37;;;;;;;0.40;0.20;;;15.60;99.90;;;;;;5111724;28;20449;-80
2021/06/30 06:27:04;;;;;;;0.40;0.20;;;15.60;99.90;;;;;;5102121;28;20407;-80
2021/06/30 06:29:30;;;;;;;0.40;0.30;;;15.70;99.90;;;;;;5113378;28;20380;-86
2021/06/30 06:31:56;;;;;;;0.40;0.20;;;15.80;99.90;;;;;;5080825;28;20816;-85
2021/06/30 06:34:22;;;;;;;0.40;0.20;;;16.00;99.90;;;;;;5099158;28;20931;-79
2021/06/30 06:36:49;;;;;;;0.40;0.20;;;16.00;99.90;;;;;;5113815;28;20389;-84
2021/06/30 06:39:19;;;;;;;0.40;0.30;;;15.90;99.90;;;;;;5097776;28;20405;-79
2021/06/30 06:41:45;;;;;;;0.40;0.30;;;16.00;99.90;;;;;;5081458;28;20399;-83
2021/06/30 06:44:11;;;;;;;0.40;0.20;;;15.90;99.90;;;;;;5114252;28;20452;-80
2021/06/30 06:46:39;;;;;;;0.40;0.20;;;15.80;99.90;;;;;;5076814;28;20400;-78
2021/06/30 06:49:08;;;;;;;0.40;0.20;;;15.70;99.90;;;;;;5093774;28;20413;-80
2021/06/30 06:51:39;;;;;;;0.40;0.30;;;15.60;99.90;;;;;;5099042;28;20384;-81
2021/06/30 06:54:06;;;;;;;0.40;0.30;;;15.60;99.90;;;;;;5111384;28;20384;-80
2021/06/30 06:56:32;;;;;;;0.40;0.30;;;15.40;99.90;;;;;;5080470;28;20394;-84
2021/06/30 06:58:58;;;;;;;0.40;0.20;;;15.30;99.90;;;;;;5098844;28;20392;-86
2021/06/30 07:01:24;;;;;;;0.40;0.30;;;15.30;99.90;;;;;;5093185;28;20904;-81
2021/06/30 07:03:50;;;;;;;0.40;0.20;;;15.40;99.90;;;;;;5093905;28;20387;-86
2021/06/30 07:06:17;;;;;;;0.40;0.30;;;15.40;99.90;;;;;;5101467;28;20399;-78
2021/06/30 07:08:43;;;;;;;0.40;0.30;;;15.40;99.90;;;;;;5115655;28;20408;-83
2021/06/30 07:11:09;;;;;;;0.40;0.30;;;15.40;99.90;;;;;;5099363;28;20405;-84
2021/06/30 07:13:36;;;;;;;0.40;0.30;;;15.40;99.90;;;;;;5095685;28;20692;-79
2021/06/30 07:16:04;;;;;;;0.40;0.30;;;15.30;99.90;;;;;;5113501;28;20381;-87
2021/06/30 07:18:30;;;;;;;0.40;0.30;;;15.30;99.90;;;;;;5113064;28;20381;-83
2021/06/30 07:20:56;;;;;;;0.40;0.30;;;15.40;99.90;;;;;;5115069;28;20513;-84
2021/06/30 07:23:21;;;;;;;0.40;0.20;;;15.40;99.90;;;;;;5114313;28;20460;-84
2021/06/30 07:25:47;;;;;;;0.40;0.20;;;15.50;99.90;;;;;;5078377;28;20402;-85
2021/06/30 07:28:13;;;;;;;0.40;0.20;;;15.50;99.90;;;;;;5094009;28;20409;-79
2021/06/30 07:30:39;;;;;;;0.40;0.30;;;15.60;99.90;;;;;;5074159;28;20950;-86
2021/06/30 07:33:05;;;;;;;0.40;0.30;;;15.60;99.90;;;;;;5105884;28;20464;-80
2021/06/30 07:35:30;;;;;;;0.40;0.20;;;15.70;99.90;;;;;;5113591;28;20392;-84
2021/06/30 07:37:56;;;;;;;0.40;0.30;;;15.80;99.90;;;;;;5094411;28;20475;-82
2021/06/30 07:40:22;;;;;;;0.40;0.30;;;15.80;99.90;;;;;;5105334;28;20467;-85
2021/06/30 07:42:48;;;;;;;0.40;0.30;;;15.90;99.90;;;;;;5108631;28;20394;-84
2021/06/30 07:45:13;;;;;;;0.40;0.28;;;16.00;99.90;;;;;;5075807;28;20473;-81
2021/06/30 07:47:39;;;;;;;0.40;0.20;;;16.10;99.90;;;;;;5087553;28;20419;-89
2021/06/30 07:50:07;;;;;;;0.40;0.20;;;16.00;99.90;;;;;;5114400;28;20423;-78
2021/06/30 07:52:33;;;;;;;0.40;0.20;;;16.00;99.90;;;;;;5098459;28;20414;-83
2021/06/30 07:54:58;;;;;;;0.40;0.20;;;16.10;99.90;;;;;;5092721;28;20413;-85
2021/06/30 07:57:24;;;;;;;0.40;0.30;;;16.20;99.90;;;;;;5098994;28;20396;-83
2021/06/30 07:59:50;;;;;;;0.40;0.20;;;16.40;99.90;;;;;;5111636;28;20389;-81
2021/06/30 08:02:16;;;;;;;0.40;0.30;;;16.40;99.90;;;;;;5092761;28;20491;-86
2021/06/30 08:04:42;;;;;;;0.40;0.20;;;16.40;99.90;;;;;;5086286;28;20475;-84
2021/06/30 08:07:08;;;;;;;0.40;0.30;;;16.60;99.90;;;;;;5107738;28;20490;-78
2021/06/30 08:09:35;;;;;;;0.40;0.30;;;16.70;99.90;;;;;;5091814;28;20378;-85
2021/06/30 08:12:03;;;;;;;0.40;0.20;;;16.70;99.90;;;;;;5109870;28;20384;-87
2021/06/30 08:14:29;;;;;;;0.40;0.30;;;16.50;99.90;;;;;;5106050;28;20394;-79
2021/06/30 08:16:55;;;;;;;0.40;0.20;;;16.80;99.90;;;;;;5093861;28;20532;-86
2021/06/30 08:19:21;;;;;;;0.40;0.30;;;17.00;99.90;;;;;;5091946;28;20748;-82
2021/06/30 08:21:47;;;;;;;0.40;0.20;;;16.70;99.90;;;;;;5106529;28;20386;-81
2021/06/30 08:24:13;;;;;;;0.40;0.30;;;16.80;99.90;;;;;;5073855;28;20393;-85
2021/06/30 08:26:39;;;;;;;0.40;0.30;;;16.80;99.90;;;;;;5105635;28;20405;-83
2021/06/30 08:29:05;;;;;;;0.40;0.30;;;16.80;99.90;;;;;;5109781;28;20439;-83
2021/06/30 08:31:30;;;;;;;0.40;0.20;;;17.10;99.90;;;;;;5091742;28;20370;-84
2021/06/30 08:33:56;;;;;;;0.40;0.20;;;17.20;99.90;;;;;;5074845;28;20402;-84
2021/06/30 08:36:22;;;;;;;0.40;0.30;;;17.20;99.90;;;;;;5093799;28;20386;-84
2021/06/30 08:38:48;;;;;;;0.40;0.30;;;17.20;99.90;;;;;;5094775;28;20400;-83
2021/06/30 08:41:16;;;;;;;0.40;0.20;;;17.20;99.90;;;;;;5078534;28;20821;-85
2021/06/30 08:43:42;;;;;;;0.40;0.30;;;17.30;99.90;;;;;;5101011;28;20433;-76
2021/06/30 08:46:08;;;;;;;0.40;0.20;;;17.30;99.90;;;;;;5090681;28;20394;-83
2021/06/30 08:48:39;;;;;;;0.40;0.20;;;17.30;99.90;;;;;;5091242;28;20401;-82
2021/06/30 08:51:08;;;;;;;0.40;0.20;;;17.30;99.90;;;;;;5104375;28;20974;-85
2021/06/30 08:53:35;;;;;;;0.40;0.20;;;17.20;99.90;;;;;;5090374;28;20480;-82
2021/06/30 08:56:02;;;;;;;0.40;0.30;;;17.30;99.90;;;;;;5105440;28;20740;-78
2021/06/30 08:58:28;;;;;;;0.40;0.30;;;17.40;99.90;;;;;;5075725;28;20743;-79
2021/06/30 09:00:54;;;;;;;0.40;0.20;;;17.40;99.90;;;;;;5096503;28;20387;-76
2021/06/30 09:03:20;;;;;;;0.40;0.20;;;17.20;99.90;;;;;;5095442;28;20374;-79
2021/06/30 09:08:19;;;;;;;0.40;0.30;;;17.20;99.90;;;;;;5093306;28;20955;-83
2021/06/30 09:10:45;;;;;;;0.40;0.40;;;17.30;99.90;;;;;;5092888;28;20412;-81
2021/06/30 09:13:21;;;;;;;0.40;0.20;;;17.40;99.90;;;;;;5105685;28;20416;-85
2021/06/30 09:15:57;;;;;;;0.40;0.20;;;17.60;99.90;;;;;;5103065;28;20478;-80
2021/06/30 09:18:29;;;;;;;0.40;0.20;;;17.40;99.90;;;;;;5091569;28;20405;-85
2021/06/30 09:21:28;;;;;;;0.40;0.30;;;17.50;99.90;;;;;;5073690;28;20424;-86
2021/06/30 09:24:03;;;;;;;0.40;0.20;;;17.40;99.90;;;;;;5091184;28;20436;-84
2021/06/30 09:26:32;;;;;;;0.40;0.30;;;17.70;99.90;;;;;;5106753;28;20411;-84
2021/06/30 09:29:24;;;;;;;0.40;0.30;;;17.70;99.90;;;;;;5104249;28;20505;-85
2021/06/30 09:31:52;;;;;;;0.40;0.20;;;17.80;99.90;;;;;;5086573;28;20413;-83
2021/06/30 09:34:20;;;;;;;0.40;0.20;;;17.60;99.90;;;;;;5091310;28;20385;-85
2021/06/30 09:36:54;;;;;;;0.40;0.20;;;17.60;99.90;;;;;;5090353;28;20392;-85
2021/06/30 09:39:21;;;;;;;0.40;0.20;;;17.70;99.90;;;;;;5097963;28;20388;-86
2021/06/30 09:41:47;;;;;;;0.40;0.30;;;17.70;99.90;;;;;;5109051;28;20381;-80
2021/06/30 09:44:22;;;;;;;0.40;0.30;;;17.50;99.90;;;;;;5091114;28;20532;-79
2021/06/30 09:46:52;;;;;;;0.40;0.30;;;17.50;99.90;;;;;;5102641;28;20910;-83
2021/06/30 09:49:19;;;;;;;0.40;0.20;;;17.50;99.90;;;;;;5110818;28;20739;-85
2021/06/30 09:51:47;;;;;;;0.40;0.30;;;17.60;99.90;;;;;;5103652;28;20386;-76
2021/06/30 09:54:19;;;;;;;0.40;0.30;;;17.70;99.90;;;;;;5059561;28;20873;-84
2021/06/30 09:57:05;;;;;;;0.40;0.20;;;17.80;99.90;;;;;;5099523;28;20384;-87
2021/06/30 09:59:35;;;;;;;0.40;0.20;;;17.80;99.90;;;;;;5114801;28;20513;-80
2021/06/30 10:02:06;;;;;;;0.40;0.20;;;17.70;99.90;;;;;;5077708;28;20394;-83
2021/06/30 10:04:56;;;;;;;0.40;0.20;;;17.70;99.90;;;;;;5100880;28;20407;-84
2021/06/30 10:07:28;;;;;;;0.40;0.20;;;17.70;99.90;;;;;;5114157;28;20385;-82
2021/06/30 10:09:57;;;;;;;0.40;0.30;;;17.70;99.90;;;;;;5112782;28;20872;-83
2021/06/30 10:12:28;;;;;;;0.40;0.20;;;17.50;99.90;;;;;;5090681;28;20748;-79
2021/06/30 10:14:55;;;;;;;0.40;0.20;;;17.40;99.90;;;;;;5082803;28;20410;-77
2021/06/30 10:17:22;;;;;;;0.40;0.30;;;17.50;99.90;;;;;;5094066;28;20467;-80
2021/06/30 10:19:49;;;;;;;0.40;0.28;;;17.60;99.90;;;;;;5093184;28;20374;-84
2021/06/30 10:22:15;;;;;;;0.40;0.20;;;17.60;99.90;;;;;;5106746;28;20910;-83
2021/06/30 10:24:41;;;;;;;0.40;0.20;;;17.70;99.90;;;;;;5109853;28;20414;-82
2021/06/30 10:27:09;;;;;;;0.40;0.30;;;17.60;99.90;;;;;;5075735;28;20759;-81
2021/06/30 10:29:37;;;;;;;0.40;0.20;;;17.70;99.90;;;;;;5107262;28;20419;-83
2021/06/30 10:32:07;;;;;;;0.40;0.20;;;17.70;99.90;;;;;;5094495;28;20417;-82
2021/06/30 10:34:39;;;;;;;0.40;0.20;;;17.70;99.90;;;;;;5093334;28;20401;-85
2021/06/30 10:37:23;;;;;;;0.40;0.30;;;17.80;99.90;;;;;;5103943;28;20891;-80
2021/06/30 10:40:06;;;;;;;0.40;0.30;;;17.70;99.90;;;;;;5110612;28;20473;-86
2021/06/30 10:42:34;;;;;;;0.40;0.20;;;17.90;99.90;;;;;;5075612;28;20866;-83
2021/06/30 10:45:18;;;;;;;0.40;0.20;;;18.10;99.90;;;;;;5106923;28;20388;-84
2021/06/30 10:48:11;;;;;;;0.40;0.20;;;18.20;99.90;;;;;;5106028;28;20969;-83
2021/06/30 10:50:43;;;;;;;0.40;0.25;;;18.30;99.90;;;;;;5094734;28;20927;-81
2021/06/30 10:53:11;;;;;;;0.40;0.20;;;18.30;99.90;;;;;;5095235;28;20451;-84
2021/06/30 10:55:37;;;;;;;0.40;0.20;;;18.20;99.90;;;;;;5092807;28;20390;-83
2021/06/30 10:58:15;;;;;;;0.40;0.20;;;18.10;99.90;;;;;;5079885;28;20430;-80
2021/06/30 11:00:49;;;;;;;0.40;0.20;;;18.10;99.90;;;;;;5094093;28;20391;-82
2021/06/30 11:03:29;;;;;;;0.40;0.30;;;18.10;99.90;;;;;;5113979;28;20771;-84
2021/06/30 11:06:06;;;;;;;0.40;0.20;;;18.10;99.90;;;;;;5096729;28;20398;-83
2021/06/30 11:08:40;;;;;;;0.40;0.20;;;18.20;99.90;;;;;;5084313;28;20499;-82
2021/06/30 11:11:06;;;;;;;0.40;0.20;;;18.30;99.90;;;;;;5113652;28;20391;-84
2021/06/30 11:14:02;;;;;;;0.40;0.20;;;18.30;99.90;;;;;;5076530;28;20918;-82
2021/06/30 11:16:37;;;;;;;0.40;0.30;;;18.40;99.90;;;;;;5075061;28;20448;-83
2021/06/30 11:19:06;;;;;;;0.40;0.20;;;18.40;99.90;;;;;;5096979;28;20400;-80
2021/06/30 11:21:58;;;;;;;0.40;0.20;;;18.50;99.90;;;;;;5113902;28;20376;-78
2021/06/30 11:24:36;;;;;;;0.40;0.30;;;18.50;99.90;;;;;;5093038;28;20382;-88
2021/06/30 11:30:01;;;;;;;0.40;0.20;;;18.50;99.90;;;;;;5098689;28;20421;-82
2021/06/30 11:32:38;;;;;;;0.40;0.20;;;18.50;99.90;;;;;;5092882;28;20393;-81
2021/06/30 11:35:13;;;;;;;0.40;0.30;;;18.50;99.90;;;;;;5092726;28;20396;-80
2021/06/30 11:37:44;;;;;;;0.40;0.30;;;18.60;99.90;;;;;;5073784;28;20405;-84
2021/06/30 11:42:46;;;;;;;0.40;0.20;;;18.40;99.90;;;;;;5104267;28;20392;-81
2021/06/30 11:45:25;;;;;;;0.40;0.20;;;18.40;99.90;;;;;;5092750;28;20394;-83
2021/06/30 11:47:53;;;;;;;0.40;0.20;;;18.40;99.90;;;;;;5110513;28;20412;-80
2021/06/30 11:50:20;;;;;;;0.40;0.20;;;18.50;99.90;;;;;;5101319;28;20409;-82
2021/06/30 11:52:47;;;;;;;0.40;0.20;;;18.50;99.90;;;;;;5106722;28;20384;-80
2021/06/30 11:55:14;;;;;;;0.40;0.20;;;18.40;99.90;;;;;;5112469;28;20472;-82
2021/06/30 11:57:53;;;;;;;0.40;0.20;;;18.50;99.90;;;;;;5111314;28;20394;-79
2021/06/30 12:00:20;;;;;;;0.40;0.20;;;18.50;99.90;;;;;;5091115;28;20459;-80
2021/06/30 12:02:56;;;;;;;0.40;0.20;;;18.50;99.90;;;;;;5072979;28;20440;-81
2021/06/30 12:05:24;;;;;;;0.40;0.20;;;18.50;99.90;;;;;;5110958;28;20404;-82
2021/06/30 12:07:53;;;;;;;0.40;0.20;;;18.50;99.90;;;;;;5101812;28;20428;-77
2021/06/30 12:10:20;;;;;;;0.40;0.30;;;18.50;99.90;;;;;;5101972;28;20401;-80
2021/06/30 12:12:46;;;;;;;0.40;0.20;;;18.70;99.90;;;;;;5100162;28;20370;-81
2021/06/30 12:15:13;;;;;;;0.40;0.20;;;18.60;99.90;;;;;;5092254;28;20938;-80
2021/06/30 12:17:48;;;;;;;0.40;0.30;;;18.70;99.90;;;;;;5091831;28;20844;-83
2021/06/30 12:20:16;;;;;;;0.40;0.30;;;19.00;99.90;;;;;;5107483;28;20373;-81
2021/06/30 12:22:42;;;;;;;0.40;0.30;;;18.90;99.90;;;;;;5092942;28;20402;-81
2021/06/30 12:25:15;;;;;;;0.40;0.20;;;18.70;99.90;;;;;;5101073;28;20404;-84
2021/06/30 12:27:44;;;;;;;0.40;0.30;;;18.60;99.90;;;;;;5111454;28;20451;-80
2021/06/30 12:30:15;;;;;;;0.40;0.30;;;18.30;99.90;;;;;;5093666;28;20441;-79
2021/06/30 12:32:44;;;;;;;0.40;0.30;;;18.20;99.90;;;;;;5093184;28;20420;-82
2021/06/30 12:35:10;;;;;;;0.40;0.30;;;18.20;99.90;;;;;;5104162;28;20855;-79
2021/06/30 12:37:36;;;;;;;0.40;0.30;;;18.20;99.90;;;;;;5091525;28;20390;-82
2021/06/30 12:40:05;;;;;;;0.40;0.20;;;18.20;99.90;;;;;;5093965;28;20393;-77
2021/06/30 12:43:01;;;;;;;0.40;0.28;;;18.20;99.90;;;;;;5106128;28;20369;-79
2021/06/30 12:45:39;;;;;;;0.40;0.20;;;18.30;99.90;;;;;;5083536;28;20396;-85
2021/06/30 12:48:10;;;;;;;0.40;0.20;;;18.40;99.90;;;;;;5110895;28;20400;-80
2021/06/30 12:50:38;;;;;;;0.40;0.20;;;18.50;99.90;;;;;;5111538;28;20725;-85
2021/06/30 12:53:12;;;;;;;0.40;0.30;;;18.50;99.90;;;;;;5092518;28;20382;-87
2021/06/30 12:56:07;;;;;;;0.40;0.20;;;18.50;99.90;;;;;;5076412;28;21026;-79
2021/06/30 12:58:40;;;;;;;0.40;0.20;;;18.40;99.90;;;;;;5092560;28;20385;-78
2021/06/30 13:01:08;;;;;;;0.40;0.30;;;18.40;99.90;;;;;;5110824;28;20389;-83